createdAt,value
2024-02-20T00:00:06.216Z,5.00
2024-02-20T00:02:34.015Z,3.33
2024-02-20T00:05:01.189Z,3.47
2024-02-20T00:07:28.583Z,4.60
2024-02-20T00:09:55.729Z,2.60
2024-02-20T00:12:22.949Z,5.13
2024-02-20T00:14:50.047Z,7.27
2024-02-20T00:17:17.438Z,5.70
2024-02-20T00:19:44.588Z,5.37
2024-02-20T00:22:11.750Z,3.87
2024-02-20T00:24:38.887Z,4.43
2024-02-20T00:27:06.270Z,3.67
2024-02-20T00:29:33.334Z,2.40
2024-02-20T00:32:00.414Z,4.63
2024-02-20T00:34:27.569Z,2.77
2024-02-20T00:36:55.248Z,2.93
2024-02-20T00:39:22.350Z,2.60
2024-02-20T00:41:49.609Z,2.20
2024-02-20T00:44:16.713Z,3.13
2024-02-20T00:46:43.791Z,4.77
2024-02-20T00:49:11.409Z,5.40
2024-02-20T00:51:38.650Z,4.80
2024-02-20T00:54:05.753Z,3.27
2024-02-20T00:56:32.797Z,3.80
2024-02-20T00:59:00.376Z,4.73
2024-02-20T01:01:27.679Z,4.33
2024-02-20T01:03:54.992Z,6.90
2024-02-20T01:06:22.409Z,3.90
2024-02-20T01:08:49.509Z,4.00
2024-02-20T01:11:16.660Z,3.17
2024-02-20T01:13:43.738Z,3.30
2024-02-20T01:16:10.857Z,3.20
2024-02-20T01:18:39.961Z,3.57
2024-02-20T01:21:07.058Z,3.17
2024-02-20T01:23:34.108Z,5.63
2024-02-20T01:26:01.186Z,3.30
2024-02-20T01:28:28.331Z,4.73
2024-02-20T01:30:55.466Z,5.33
2024-02-20T01:33:22.662Z,2.83
2024-02-20T01:35:49.774Z,3.13
2024-02-20T01:38:16.821Z,4.27
2024-02-20T01:40:44.371Z,3.90
2024-02-20T01:43:11.552Z,3.17
2024-02-20T01:45:38.684Z,2.83
2024-02-20T01:48:06.128Z,3.27
2024-02-20T01:50:37.203Z,3.47
2024-02-20T01:53:04.613Z,4.03
2024-02-20T01:55:31.863Z,3.03
2024-02-20T01:57:59.067Z,3.33
2024-02-20T02:00:26.255Z,3.77
2024-02-20T02:02:53.344Z,4.80
2024-02-20T02:05:21.349Z,5.40
2024-02-20T02:07:51.729Z,2.77
2024-02-20T02:10:19.409Z,2.83
2024-02-20T02:12:46.549Z,2.83
2024-02-20T02:15:13.602Z,2.47
2024-02-20T02:17:40.774Z,3.63
2024-02-20T02:20:08.408Z,3.00
2024-02-20T02:22:35.762Z,3.37
2024-02-20T02:25:04.280Z,2.80
2024-02-20T02:27:31.404Z,3.30
2024-02-20T02:29:58.514Z,3.43
2024-02-20T02:32:25.659Z,3.00
2024-02-20T02:34:52.833Z,3.27
2024-02-20T02:37:20.037Z,4.33
2024-02-20T02:39:47.441Z,3.37
2024-02-20T02:42:14.612Z,3.57
2024-02-20T02:44:41.928Z,4.40
2024-02-20T02:47:09.917Z,3.23
2024-02-20T02:49:37.205Z,3.63
2024-02-20T02:52:04.495Z,4.47
2024-02-20T02:54:31.639Z,3.93
2024-02-20T02:56:58.797Z,3.37
2024-02-20T02:59:25.862Z,3.00
2024-02-20T03:01:53.131Z,3.73
2024-02-20T03:04:20.671Z,4.50
2024-02-20T03:06:48.574Z,3.47
2024-02-20T03:09:16.462Z,3.23
2024-02-20T03:11:43.922Z,2.90
2024-02-20T03:14:14.963Z,2.90
2024-02-20T03:16:42.225Z,2.50
2024-02-20T03:19:09.514Z,2.37
2024-02-20T03:21:39.513Z,2.77
2024-02-20T03:24:06.769Z,2.37
2024-02-20T03:26:34.366Z,2.50
2024-02-20T03:29:01.587Z,2.30
2024-02-20T03:31:28.740Z,2.57
2024-02-20T03:33:56.027Z,3.50
2024-02-20T03:36:23.621Z,2.37
2024-02-20T03:38:50.679Z,2.00
2024-02-20T03:41:17.806Z,2.80
2024-02-20T03:43:44.909Z,2.33
2024-02-20T03:46:13.141Z,2.17
2024-02-20T03:48:40.746Z,2.07
2024-02-20T03:51:08.010Z,2.70
2024-02-20T03:53:35.099Z,2.37
2024-02-20T03:56:02.941Z,2.10
2024-02-20T03:58:30.088Z,2.20
2024-02-20T04:00:57.295Z,1.83
2024-02-20T04:03:24.475Z,2.50
2024-02-20T04:05:51.622Z,2.57
2024-02-20T04:08:18.695Z,2.33
2024-02-20T04:10:45.864Z,2.50
2024-02-20T04:13:13.085Z,4.13
2024-02-20T04:15:40.221Z,3.77
2024-02-20T04:18:07.519Z,2.67
2024-02-20T04:20:34.626Z,2.60
2024-02-20T04:23:07.800Z,2.50
2024-02-20T04:25:34.981Z,2.67
2024-02-20T04:28:02.091Z,2.70
2024-02-20T04:30:29.220Z,3.30
2024-02-20T04:32:56.388Z,2.50
2024-02-20T04:35:23.475Z,3.33
2024-02-20T04:37:50.551Z,2.40
2024-02-20T04:40:19.511Z,2.30
2024-02-20T04:42:46.639Z,2.70
2024-02-20T04:45:13.815Z,2.23
2024-02-20T04:47:41.005Z,2.40
2024-02-20T04:50:09.105Z,2.00
2024-02-20T04:52:36.526Z,2.40
2024-02-20T04:55:04.626Z,1.90
2024-02-20T04:57:31.934Z,2.30
2024-02-20T04:59:59.570Z,2.00
2024-02-20T05:02:27.163Z,2.27
2024-02-20T05:04:56.801Z,2.30
2024-02-20T05:07:24.620Z,1.80
2024-02-20T05:09:52.092Z,1.83
2024-02-20T05:12:19.291Z,2.13
2024-02-20T05:14:48.919Z,1.80
2024-02-20T05:17:16.464Z,2.50
2024-02-20T05:19:43.820Z,2.50
2024-02-20T05:22:10.941Z,2.20
2024-02-20T05:24:38.087Z,2.00
2024-02-20T05:27:05.261Z,1.80
2024-02-20T05:29:32.381Z,2.20
2024-02-20T05:31:59.487Z,1.83
2024-02-20T05:34:26.730Z,1.87
2024-02-20T05:36:53.911Z,1.80
2024-02-20T05:39:21.125Z,1.83
2024-02-20T05:41:48.846Z,2.00
2024-02-20T05:44:16.931Z,2.10
2024-02-20T05:46:45.340Z,2.10
2024-02-20T05:49:12.583Z,1.83
2024-02-20T05:51:39.802Z,1.90
2024-02-20T05:54:07.122Z,2.00
2024-02-20T05:56:34.297Z,2.27
2024-02-20T05:59:01.431Z,1.87
2024-02-20T06:01:28.646Z,1.80
2024-02-20T06:03:55.952Z,1.90
2024-02-20T06:06:23.126Z,2.50
2024-02-20T06:08:52.079Z,1.90
2024-02-20T06:11:19.962Z,2.30
2024-02-20T06:13:47.387Z,2.23
2024-02-20T06:16:14.729Z,2.23
2024-02-20T06:18:41.977Z,1.90
2024-02-20T06:21:12.270Z,2.13
2024-02-20T06:23:39.879Z,2.07
2024-02-20T06:26:07.264Z,2.07
2024-02-20T06:28:34.637Z,2.43
2024-02-20T06:31:06.607Z,2.00
2024-02-20T06:33:33.928Z,2.33
2024-02-20T06:36:01.056Z,1.90
2024-02-20T06:38:29.011Z,1.70
2024-02-20T06:40:56.285Z,2.10
2024-02-20T06:43:23.451Z,2.13
2024-02-20T06:45:50.565Z,2.20
2024-02-20T06:48:17.814Z,1.73
2024-02-20T06:50:44.983Z,2.00
2024-02-20T06:53:12.057Z,1.80
2024-02-20T06:55:39.132Z,1.90
2024-02-20T06:58:06.331Z,1.60
2024-02-20T07:00:33.506Z,1.90
2024-02-20T07:03:00.818Z,1.80
2024-02-20T07:05:28.304Z,1.90
2024-02-20T07:07:55.539Z,1.80
2024-02-20T07:10:22.757Z,1.50
2024-02-20T07:12:49.906Z,1.60
2024-02-20T07:15:16.977Z,2.30
2024-02-20T07:17:44.161Z,1.60
2024-02-20T07:20:13.243Z,1.70
2024-02-20T07:22:40.555Z,1.40
2024-02-20T07:25:08.337Z,2.30
2024-02-20T07:27:35.438Z,1.97
2024-02-20T07:30:02.605Z,1.53
2024-02-20T07:32:29.716Z,1.63
2024-02-20T07:34:56.979Z,1.73
2024-02-20T07:37:24.189Z,1.50
2024-02-20T07:39:51.300Z,1.93
2024-02-20T07:42:18.582Z,1.60
2024-02-20T07:44:45.711Z,2.07
2024-02-20T07:47:12.828Z,1.90
2024-02-20T07:49:40.148Z,1.93
2024-02-20T07:52:09.114Z,1.90
2024-02-20T07:54:36.247Z,2.10
2024-02-20T07:57:03.315Z,1.80
2024-02-20T07:59:30.410Z,2.03
2024-02-20T08:01:58.568Z,2.23
2024-02-20T08:04:25.781Z,2.60
2024-02-20T08:06:53.055Z,2.30
2024-02-20T08:09:20.215Z,2.67
2024-02-20T08:11:47.426Z,3.83
2024-02-20T08:14:14.547Z,2.77
2024-02-20T08:16:41.690Z,2.63
2024-02-20T08:19:08.894Z,2.70
2024-02-20T08:21:36.004Z,3.10
2024-02-20T08:24:04.859Z,3.03
2024-02-20T08:26:31.945Z,2.80
2024-02-20T08:28:59.021Z,2.80
2024-02-20T08:31:26.937Z,3.17
2024-02-20T08:33:54.161Z,4.03
2024-02-20T08:36:22.002Z,3.57
2024-02-20T08:38:49.181Z,4.50
2024-02-20T08:41:16.252Z,3.70
2024-02-20T08:43:43.761Z,3.60
2024-02-20T08:46:10.994Z,3.60
2024-02-20T08:48:38.101Z,3.30
2024-02-20T08:51:05.341Z,3.30
2024-02-20T08:53:32.472Z,3.47
2024-02-20T08:55:59.620Z,3.43
2024-02-20T08:58:26.834Z,3.27
2024-02-20T09:00:54.118Z,3.77
2024-02-20T09:03:21.483Z,3.40
2024-02-20T09:05:48.775Z,4.00
2024-02-20T09:08:16.491Z,2.70
2024-02-20T09:10:43.806Z,3.03
2024-02-20T09:13:11.161Z,3.07
2024-02-20T09:15:38.328Z,2.97
2024-02-20T09:18:05.671Z,2.63
2024-02-20T09:20:33.204Z,2.90
2024-02-20T09:23:00.327Z,3.00
2024-02-20T09:25:27.434Z,3.20
2024-02-20T09:27:54.519Z,2.87
2024-02-20T09:30:21.626Z,2.87
2024-02-20T09:32:48.746Z,3.13
2024-02-20T09:35:16.061Z,2.53
2024-02-20T09:37:43.851Z,3.13
2024-02-20T09:40:11.304Z,2.50
2024-02-20T09:42:45.413Z,3.27
2024-02-20T09:45:16.965Z,2.90
2024-02-20T09:47:44.124Z,2.50
2024-02-20T09:50:13.526Z,2.80
2024-02-20T09:52:41.385Z,3.27
2024-02-20T09:55:09.084Z,2.70
2024-02-20T09:57:36.204Z,3.37
2024-02-20T10:00:03.546Z,5.27
2024-02-20T10:02:31.158Z,2.80
2024-02-20T10:04:59.759Z,2.63
2024-02-20T10:07:26.984Z,2.67
2024-02-20T10:09:54.088Z,3.07
2024-02-20T10:12:22.010Z,2.40
2024-02-20T10:14:49.324Z,2.30
2024-02-20T10:17:17.086Z,2.23
2024-02-20T10:19:44.936Z,1.97
2024-02-20T10:22:12.313Z,2.30
2024-02-20T10:24:39.735Z,2.53
2024-02-20T10:27:07.040Z,2.40
2024-02-20T10:29:34.156Z,2.10
2024-02-20T10:32:01.331Z,2.27
2024-02-20T10:34:28.512Z,2.33
2024-02-20T10:37:07.972Z,2.50
2024-02-20T10:39:35.503Z,2.80
2024-02-20T10:42:02.665Z,3.30
2024-02-20T10:44:30.668Z,2.93
2024-02-20T10:46:58.925Z,2.40
2024-02-20T10:49:33.290Z,2.37
2024-02-20T10:52:00.999Z,2.17
2024-02-20T10:54:35.504Z,2.97
2024-02-20T10:57:10.266Z,3.00
2024-02-20T10:59:37.382Z,3.37
2024-02-20T11:02:04.641Z,2.47
2024-02-20T11:04:31.830Z,3.20
2024-02-20T11:06:59.001Z,4.07
2024-02-20T11:09:27.192Z,2.53
2024-02-20T11:11:54.273Z,2.83
2024-02-20T11:14:27.438Z,3.57
2024-02-20T11:16:54.615Z,2.60
2024-02-20T11:19:26.682Z,1.77
2024-02-20T11:21:54.168Z,1.90
2024-02-20T11:24:21.478Z,2.27
2024-02-20T11:26:49.468Z,4.13
2024-02-20T11:29:19.651Z,2.67
2024-02-20T11:31:46.881Z,3.07
2024-02-20T11:34:22.591Z,1.70
2024-02-20T11:36:50.532Z,2.67
2024-02-20T11:39:17.856Z,2.70
2024-02-20T11:41:46.110Z,1.97
2024-02-20T11:44:15.431Z,1.93
2024-02-20T11:46:45.935Z,2.33
2024-02-20T11:49:21.726Z,1.63
2024-02-20T11:51:48.952Z,2.20
2024-02-20T11:54:16.030Z,1.67
2024-02-20T11:56:43.160Z,1.77
2024-02-20T11:59:10.335Z,3.17
2024-02-20T12:01:37.813Z,3.00
2024-02-20T12:04:08.229Z,2.67
2024-02-20T12:06:37.092Z,2.10
2024-02-20T12:09:04.742Z,2.40
2024-02-20T12:11:32.009Z,2.87
2024-02-20T12:14:00.746Z,1.67
2024-02-20T12:16:30.288Z,1.60
2024-02-20T12:19:03.720Z,2.00
2024-02-20T12:21:39.870Z,2.30
2024-02-20T12:24:11.953Z,2.20
2024-02-20T12:26:39.648Z,2.20
2024-02-20T12:29:06.866Z,1.83
2024-02-20T12:31:35.448Z,1.97
2024-02-20T12:34:04.823Z,2.37
2024-02-20T12:36:32.726Z,2.73
2024-02-20T12:39:00.869Z,1.87
2024-02-20T12:41:28.247Z,1.63
2024-02-20T12:43:55.472Z,3.30
2024-02-20T12:46:23.982Z,2.00
2024-02-20T12:48:55.084Z,3.97
2024-02-20T12:51:23.096Z,3.20
2024-02-20T12:53:50.405Z,3.13
2024-02-20T12:56:17.557Z,2.20
2024-02-20T12:58:47.158Z,1.77
2024-02-20T13:01:15.268Z,2.17
2024-02-20T13:03:42.970Z,2.90
2024-02-20T13:06:10.242Z,3.23
2024-02-20T13:08:37.389Z,3.70
2024-02-20T13:11:04.654Z,1.93
2024-02-20T13:13:31.836Z,3.17
2024-02-20T13:15:58.944Z,2.10
2024-02-20T13:18:26.185Z,2.03
2024-02-20T13:20:53.282Z,2.10
2024-02-20T13:23:20.399Z,1.37
2024-02-20T13:25:48.671Z,2.30
2024-02-20T13:28:17.291Z,2.57
2024-02-20T13:30:44.497Z,2.50
2024-02-20T13:33:11.778Z,1.30
2024-02-20T13:35:39.105Z,1.30
2024-02-20T13:38:06.471Z,2.30
2024-02-20T13:40:33.624Z,2.33
2024-02-20T13:43:03.506Z,1.53
2024-02-20T13:45:30.631Z,1.93
2024-02-20T13:47:57.802Z,2.20
2024-02-20T13:50:25.156Z,2.13
2024-02-20T13:52:54.045Z,2.40
2024-02-20T13:55:21.237Z,2.13
2024-02-20T13:57:48.339Z,2.13
2024-02-20T14:00:16.861Z,2.10
2024-02-20T14:02:43.976Z,2.33
2024-02-20T14:05:11.154Z,2.90
2024-02-20T14:07:38.278Z,2.80
2024-02-20T14:10:05.659Z,2.47
2024-02-20T14:12:32.768Z,2.77
2024-02-20T14:15:02.551Z,2.23
2024-02-20T14:17:31.728Z,2.47
2024-02-20T14:19:58.982Z,2.93
2024-02-20T14:22:26.203Z,2.00
2024-02-20T14:24:53.322Z,1.63
2024-02-20T14:27:20.489Z,1.67
2024-02-20T14:29:47.536Z,2.30
2024-02-20T14:32:14.607Z,2.27
2024-02-20T14:34:41.733Z,2.40
2024-02-20T14:37:08.903Z,2.80
2024-02-20T14:39:36.321Z,2.70
2024-02-20T14:42:03.509Z,4.03
2024-02-20T14:44:30.588Z,2.27
2024-02-20T14:46:58.502Z,2.43
2024-02-20T14:49:26.577Z,2.03
2024-02-20T14:51:53.965Z,2.90
2024-02-20T14:54:21.208Z,2.30
2024-02-20T14:56:50.093Z,2.37
2024-02-20T14:59:17.544Z,2.10
2024-02-20T15:01:47.524Z,2.77
2024-02-20T15:04:15.040Z,3.03
2024-02-20T15:06:44.251Z,2.47
2024-02-20T15:09:11.634Z,1.70
2024-02-20T15:11:39.630Z,1.77
2024-02-20T15:14:06.872Z,1.70
2024-02-20T15:16:33.987Z,1.97
2024-02-20T15:19:01.208Z,3.67
2024-02-20T15:21:28.341Z,1.77
2024-02-20T15:23:55.427Z,2.83
2024-02-20T15:26:22.557Z,3.13
2024-02-20T15:28:49.801Z,2.30
2024-02-20T15:31:17.064Z,2.33
2024-02-20T15:33:44.433Z,1.60
2024-02-20T15:36:11.867Z,2.70
2024-02-20T15:38:39.070Z,2.87
2024-02-20T15:41:06.678Z,2.80
2024-02-20T15:43:34.210Z,2.70
2024-02-20T15:46:01.475Z,2.23
2024-02-20T15:48:28.712Z,2.37
2024-02-20T15:50:58.429Z,2.43
2024-02-20T15:53:27.322Z,2.07
2024-02-20T15:55:54.516Z,1.60
2024-02-20T15:58:24.049Z,2.27
2024-02-20T16:00:53.490Z,2.30
2024-02-20T16:03:22.464Z,1.97
2024-02-20T16:05:50.619Z,1.83
2024-02-20T16:08:20.095Z,2.23
2024-02-20T16:10:47.762Z,1.90
2024-02-20T16:13:16.114Z,2.20
2024-02-20T16:15:43.412Z,2.80
2024-02-20T16:18:10.702Z,2.57
2024-02-20T16:20:37.851Z,2.10
2024-02-20T16:23:05.015Z,2.93
2024-02-20T16:25:32.121Z,3.30
2024-02-20T16:27:59.373Z,2.67
2024-02-20T16:30:26.423Z,3.17
2024-02-20T16:32:53.538Z,1.50
2024-02-20T16:35:20.638Z,2.30
2024-02-20T16:37:47.778Z,2.07
2024-02-20T16:40:17.055Z,2.77
2024-02-20T16:42:44.191Z,2.03
2024-02-20T16:45:11.357Z,2.93
2024-02-20T16:47:38.631Z,2.23
2024-02-20T16:50:06.027Z,2.33
2024-02-20T16:52:33.165Z,1.80
2024-02-20T16:55:00.428Z,2.93
2024-02-20T16:57:27.766Z,2.30
2024-02-20T16:59:56.210Z,2.67
2024-02-20T17:02:23.427Z,1.73
2024-02-20T17:04:50.728Z,2.00
2024-02-20T17:07:18.865Z,2.20
2024-02-20T17:09:46.903Z,2.30
2024-02-20T17:12:14.344Z,1.80
2024-02-20T17:14:42.778Z,2.20
2024-02-20T17:17:10.029Z,1.97
2024-02-20T17:19:38.815Z,2.00
2024-02-20T17:22:06.266Z,1.90
2024-02-20T17:24:33.501Z,2.17
2024-02-20T17:27:00.755Z,1.83
2024-02-20T17:29:28.687Z,1.67
2024-02-20T17:31:56.116Z,2.00
2024-02-20T17:34:23.856Z,1.87
2024-02-20T17:36:52.205Z,3.47
2024-02-20T17:39:19.282Z,1.63
2024-02-20T17:41:46.366Z,2.13
2024-02-20T17:44:13.528Z,1.70
2024-02-20T17:46:40.697Z,1.63
2024-02-20T17:49:07.922Z,2.50
2024-02-20T17:51:37.056Z,2.50
2024-02-20T17:54:06.598Z,1.60
2024-02-20T17:56:35.658Z,1.57
2024-02-20T17:59:04.557Z,2.00
2024-02-20T18:01:33.240Z,2.03
2024-02-20T18:04:00.664Z,1.93
2024-02-20T18:06:28.570Z,2.17
2024-02-20T18:08:55.936Z,1.70
2024-02-20T18:11:23.029Z,2.30
2024-02-20T18:13:52.080Z,2.00
2024-02-20T18:16:20.221Z,1.70
2024-02-20T18:18:47.667Z,2.63
2024-02-20T18:21:14.919Z,1.93
2024-02-20T18:23:41.977Z,2.10
2024-02-20T18:26:09.272Z,2.30
2024-02-20T18:28:37.420Z,2.80
2024-02-20T18:31:04.837Z,2.67
2024-02-20T18:33:32.094Z,3.83
2024-02-20T18:35:59.481Z,3.83
2024-02-20T18:38:27.800Z,3.33
2024-02-20T18:40:55.385Z,2.53
2024-02-20T18:43:23.063Z,2.43
2024-02-20T18:45:50.246Z,2.57
2024-02-20T18:48:17.569Z,2.73
2024-02-20T18:50:44.725Z,3.10
2024-02-20T18:53:12.167Z,2.70
2024-02-20T18:55:39.258Z,2.77
2024-02-20T18:58:07.614Z,3.67
2024-02-20T19:00:34.808Z,3.27
2024-02-20T19:03:03.105Z,3.83
2024-02-20T19:05:30.406Z,2.30
2024-02-20T19:07:57.676Z,2.37
2024-02-20T19:10:24.856Z,2.10
2024-02-20T19:12:52.725Z,2.47
2024-02-20T19:15:19.810Z,1.97
2024-02-20T19:17:46.897Z,2.57
2024-02-20T19:20:19.537Z,2.50
2024-02-20T19:22:47.353Z,2.50
2024-02-20T19:25:14.618Z,2.60
2024-02-20T19:27:43.105Z,2.37
2024-02-20T19:30:10.414Z,3.23
2024-02-20T19:32:37.534Z,3.67
2024-02-20T19:35:05.098Z,2.30
2024-02-20T19:37:32.222Z,3.93
2024-02-20T19:39:59.433Z,2.70
2024-02-20T19:42:26.589Z,3.23
2024-02-20T19:44:53.669Z,3.03
2024-02-20T19:47:20.762Z,3.30
2024-02-20T19:49:48.974Z,3.07
2024-02-20T19:52:17.080Z,3.13
2024-02-20T19:54:45.952Z,2.73
2024-02-20T19:57:13.926Z,2.30
2024-02-20T19:59:41.333Z,2.70
2024-02-20T20:02:08.561Z,1.93
2024-02-20T20:04:36.663Z,2.93
2024-02-20T20:07:03.970Z,4.23
2024-02-20T20:09:31.084Z,3.70
2024-02-20T20:11:58.278Z,5.60
2024-02-20T20:14:25.547Z,2.63
2024-02-20T20:16:52.764Z,2.63
2024-02-20T20:19:19.994Z,3.00
2024-02-20T20:21:49.124Z,3.03
2024-02-20T20:24:18.800Z,2.67
2024-02-20T20:26:46.977Z,3.73
2024-02-20T20:29:14.359Z,3.27
2024-02-20T20:31:42.462Z,2.80
2024-02-20T20:34:10.458Z,3.20
2024-02-20T20:36:38.442Z,2.80
2024-02-20T20:39:06.599Z,2.77
2024-02-20T20:41:35.424Z,3.47
2024-02-20T20:44:02.883Z,4.40
2024-02-20T20:46:30.278Z,3.53
2024-02-20T20:48:57.454Z,2.50
2024-02-20T20:51:24.600Z,2.67
2024-02-20T20:53:52.442Z,3.10
2024-02-20T20:56:19.497Z,3.50
2024-02-20T20:58:46.756Z,2.70
2024-02-20T21:01:14.150Z,3.03
2024-02-20T21:03:41.291Z,3.00
2024-02-20T21:06:08.966Z,3.17
2024-02-20T21:08:36.185Z,2.70
2024-02-20T21:11:03.384Z,3.00
2024-02-20T21:13:30.602Z,2.90
2024-02-20T21:15:57.672Z,2.80
2024-02-20T21:18:25.147Z,2.80
2024-02-20T21:20:52.249Z,2.60
2024-02-20T21:23:19.333Z,2.47
2024-02-20T21:25:49.319Z,2.23
2024-02-20T21:28:16.603Z,2.97
2024-02-20T21:30:45.261Z,2.53
2024-02-20T21:33:13.315Z,2.73
2024-02-20T21:35:40.644Z,2.33
2024-02-20T21:38:08.395Z,2.60
2024-02-20T21:40:36.237Z,3.27
2024-02-20T21:43:03.556Z,2.93
2024-02-20T21:45:30.652Z,3.10
2024-02-20T21:47:57.962Z,2.57
2024-02-20T21:50:25.190Z,2.70
2024-02-20T21:52:52.760Z,2.80
2024-02-20T21:55:20.357Z,2.90
2024-02-20T21:57:47.570Z,3.27
2024-02-20T22:00:15.210Z,4.07
2024-02-20T22:02:42.393Z,2.80
2024-02-20T22:05:10.572Z,4.67
2024-02-20T22:07:38.017Z,3.77
2024-02-20T22:10:05.484Z,4.07
2024-02-20T22:12:32.643Z,3.07
2024-02-20T22:15:01.607Z,2.93
2024-02-20T22:17:28.974Z,2.10
2024-02-20T22:19:56.183Z,3.43
2024-02-20T22:22:23.340Z,3.30
2024-02-20T22:24:50.483Z,2.80
2024-02-20T22:27:17.580Z,3.07
2024-02-20T22:29:47.154Z,2.60
2024-02-20T22:32:14.236Z,2.50
2024-02-20T22:34:44.626Z,2.47
2024-02-20T22:37:11.864Z,2.93
2024-02-20T22:39:38.999Z,2.73
2024-02-20T22:42:06.179Z,2.80
2024-02-20T22:44:33.220Z,3.17
2024-02-20T22:47:00.506Z,3.40
2024-02-20T22:49:28.263Z,5.10
2024-02-20T22:51:55.402Z,3.60
2024-02-20T22:54:23.069Z,3.87
2024-02-20T22:56:50.850Z,3.83
2024-02-20T22:59:18.044Z,4.03
2024-02-20T23:01:45.207Z,4.03
2024-02-20T23:04:12.776Z,3.80
2024-02-20T23:06:43.324Z,3.17
2024-02-20T23:09:12.512Z,3.70
2024-02-20T23:11:39.822Z,3.40
2024-02-20T23:14:06.977Z,3.40
2024-02-20T23:16:34.220Z,2.77
2024-02-20T23:19:02.497Z,2.40
2024-02-20T23:21:29.719Z,3.00
2024-02-20T23:23:56.787Z,2.30
2024-02-20T23:26:24.163Z,2.43
2024-02-20T23:28:51.394Z,2.20
2024-02-20T23:31:18.747Z,2.43
2024-02-20T23:33:45.884Z,2.43
2024-02-20T23:36:13.031Z,2.17
2024-02-20T23:38:40.097Z,2.27
2024-02-20T23:41:07.208Z,2.50
2024-02-20T23:43:40.226Z,1.80
2024-02-20T23:46:07.960Z,2.13
2024-02-20T23:48:35.209Z,1.97
2024-02-20T23:51:02.308Z,2.00
2024-02-20T23:53:29.409Z,2.10
2024-02-20T23:55:56.531Z,2.30
2024-02-20T23:58:23.706Z,2.33
